sensor_id;sensor_type;location;lat;lon;timestamp;P1;durP1;ratioP1;P2;durP2;ratioP2
47299;SDS011;33036;51.320;17.234;2022-10-26T00:03:02;30.40;;;11.07;;
47299;SDS011;33036;51.320;17.234;2022-10-26T00:07:03;47.70;;;13.85;;
47299;SDS011;33036;51.320;17.234;2022-10-26T00:11:04;41.00;;;14.02;;
47299;SDS011;33036;51.320;17.234;2022-10-26T00:15:06;35.97;;;12.00;;
47299;SDS011;33036;51.320;17.234;2022-10-26T00:19:08;32.67;;;9.93;;
47299;SDS011;33036;51.320;17.234;2022-10-26T00:23:08;31.85;;;8.73;;
47299;SDS011;33036;51.320;17.234;2022-10-26T00:27:09;25.58;;;9.20;;
47299;SDS011;33036;51.320;17.234;2022-10-26T00:31:11;25.23;;;9.02;;
47299;SDS011;33036;51.320;17.234;2022-10-26T00:35:13;19.13;;;7.60;;
47299;SDS011;33036;51.320;17.234;2022-10-26T00:39:14;19.40;;;7.85;;
47299;SDS011;33036;51.320;17.234;2022-10-26T00:43:32;22.08;;;8.63;;
47299;SDS011;33036;51.320;17.234;2022-10-26T00:47:44;19.08;;;8.40;;
47299;SDS011;33036;51.320;17.234;2022-10-26T00:51:48;24.75;;;8.27;;
47299;SDS011;33036;51.320;17.234;2022-10-26T00:55:51;21.73;;;7.50;;
47299;SDS011;33036;51.320;17.234;2022-10-26T00:59:53;23.02;;;8.18;;
47299;SDS011;33036;51.320;17.234;2022-10-26T01:03:55;22.52;;;8.40;;
47299;SDS011;33036;51.320;17.234;2022-10-26T01:07:56;18.70;;;8.20;;
47299;SDS011;33036;51.320;17.234;2022-10-26T01:11:57;22.27;;;8.15;;
47299;SDS011;33036;51.320;17.234;2022-10-26T01:16:06;27.60;;;9.32;;
47299;SDS011;33036;51.320;17.234;2022-10-26T01:33:53;25.38;;;9.18;;
47299;SDS011;33036;51.320;17.234;2022-10-26T01:42:04;17.25;;;7.68;;
47299;SDS011;33036;51.320;17.234;2022-10-26T01:46:05;20.40;;;8.27;;
47299;SDS011;33036;51.320;17.234;2022-10-26T01:50:07;16.90;;;7.72;;
47299;SDS011;33036;51.320;17.234;2022-10-26T01:54:09;18.35;;;7.50;;
47299;SDS011;33036;51.320;17.234;2022-10-26T01:58:14;30.35;;;9.55;;
47299;SDS011;33036;51.320;17.234;2022-10-26T02:07:03;58.85;;;17.52;;
47299;SDS011;33036;51.320;17.234;2022-10-26T02:15:58;74.00;;;22.88;;
47299;SDS011;33036;51.320;17.234;2022-10-26T02:20:22;84.88;;;22.08;;
47299;SDS011;33036;51.320;17.234;2022-10-26T02:24:26;84.68;;;23.92;;
47299;SDS011;33036;51.320;17.234;2022-10-26T02:28:30;76.32;;;21.25;;
47299;SDS011;33036;51.320;17.234;2022-10-26T02:32:34;52.13;;;19.15;;
47299;SDS011;33036;51.320;17.234;2022-10-26T02:36:38;69.78;;;18.48;;
47299;SDS011;33036;51.320;17.234;2022-10-26T02:40:43;47.88;;;17.30;;
47299;SDS011;33036;51.320;17.234;2022-10-26T02:44:48;85.22;;;25.48;;
47299;SDS011;33036;51.320;17.234;2022-10-26T02:48:50;61.00;;;21.02;;
47299;SDS011;33036;51.320;17.234;2022-10-26T02:52:54;73.47;;;22.02;;
47299;SDS011;33036;51.320;17.234;2022-10-26T02:57:10;81.90;;;21.77;;
47299;SDS011;33036;51.320;17.234;2022-10-26T03:01:15;80.15;;;22.75;;
47299;SDS011;33036;51.320;17.234;2022-10-26T03:09:31;67.10;;;18.95;;
47299;SDS011;33036;51.320;17.234;2022-10-26T03:13:32;59.97;;;16.83;;
47299;SDS011;33036;51.320;17.234;2022-10-26T03:17:36;49.78;;;15.27;;
47299;SDS011;33036;51.320;17.234;2022-10-26T03:21:37;51.28;;;15.75;;
47299;SDS011;33036;51.320;17.234;2022-10-26T03:25:38;53.50;;;13.77;;
47299;SDS011;33036;51.320;17.234;2022-10-26T03:29:39;45.50;;;12.98;;
47299;SDS011;33036;51.320;17.234;2022-10-26T03:33:40;40.95;;;10.55;;
47299;SDS011;33036;51.320;17.234;2022-10-26T03:37:41;38.20;;;10.43;;
47299;SDS011;33036;51.320;17.234;2022-10-26T03:41:41;60.08;;;11.52;;
47299;SDS011;33036;51.320;17.234;2022-10-26T03:45:43;38.60;;;9.15;;
47299;SDS011;33036;51.320;17.234;2022-10-26T03:49:44;34.78;;;9.65;;
47299;SDS011;33036;51.320;17.234;2022-10-26T03:53:45;29.45;;;10.32;;
47299;SDS011;33036;51.320;17.234;2022-10-26T03:57:46;71.35;;;14.52;;
47299;SDS011;33036;51.320;17.234;2022-10-26T04:01:47;70.38;;;15.43;;
47299;SDS011;33036;51.320;17.234;2022-10-26T04:05:48;150.55;;;37.72;;
47299;SDS011;33036;51.320;17.234;2022-10-26T04:09:49;136.68;;;30.77;;
47299;SDS011;33036;51.320;17.234;2022-10-26T04:13:50;95.57;;;24.83;;
47299;SDS011;33036;51.320;17.234;2022-10-26T04:17:58;88.88;;;22.38;;
47299;SDS011;33036;51.320;17.234;2022-10-26T04:22:00;67.28;;;18.08;;
47299;SDS011;33036;51.320;17.234;2022-10-26T04:26:03;67.00;;;20.02;;
47299;SDS011;33036;51.320;17.234;2022-10-26T04:30:04;64.72;;;18.20;;
47299;SDS011;33036;51.320;17.234;2022-10-26T04:34:09;66.43;;;19.05;;
47299;SDS011;33036;51.320;17.234;2022-10-26T04:38:10;60.50;;;17.73;;
47299;SDS011;33036;51.320;17.234;2022-10-26T04:42:11;44.80;;;17.10;;
47299;SDS011;33036;51.320;17.234;2022-10-26T04:46:12;48.97;;;18.17;;
47299;SDS011;33036;51.320;17.234;2022-10-26T04:50:15;47.47;;;18.45;;
47299;SDS011;33036;51.320;17.234;2022-10-26T04:54:16;35.08;;;17.88;;
47299;SDS011;33036;51.320;17.234;2022-10-26T04:58:17;46.28;;;26.10;;
47299;SDS011;33036;51.320;17.234;2022-10-26T05:02:18;33.83;;;17.52;;
47299;SDS011;33036;51.320;17.234;2022-10-26T05:06:20;29.10;;;15.10;;
47299;SDS011;33036;51.320;17.234;2022-10-26T05:10:21;28.95;;;14.57;;
47299;SDS011;33036;51.320;17.234;2022-10-26T05:14:23;37.30;;;19.00;;
47299;SDS011;33036;51.320;17.234;2022-10-26T05:18:24;45.42;;;24.80;;
47299;SDS011;33036;51.320;17.234;2022-10-26T05:22:26;20.05;;;12.05;;
47299;SDS011;33036;51.320;17.234;2022-10-26T05:26:26;22.52;;;10.70;;
47299;SDS011;33036;51.320;17.234;2022-10-26T05:30:28;15.88;;;7.55;;
47299;SDS011;33036;51.320;17.234;2022-10-26T05:34:29;11.45;;;6.25;;
47299;SDS011;33036;51.320;17.234;2022-10-26T05:38:30;9.63;;;6.22;;
47299;SDS011;33036;51.320;17.234;2022-10-26T05:42:31;9.93;;;5.72;;
47299;SDS011;33036;51.320;17.234;2022-10-26T05:46:31;13.13;;;7.72;;
47299;SDS011;33036;51.320;17.234;2022-10-26T05:50:32;21.33;;;10.15;;
47299;SDS011;33036;51.320;17.234;2022-10-26T05:54:33;17.98;;;11.00;;
47299;SDS011;33036;51.320;17.234;2022-10-26T05:58:34;25.17;;;15.68;;
47299;SDS011;33036;51.320;17.234;2022-10-26T06:06:44;29.73;;;17.43;;
47299;SDS011;33036;51.320;17.234;2022-10-26T06:10:46;23.88;;;13.75;;
47299;SDS011;33036;51.320;17.234;2022-10-26T06:14:47;25.08;;;13.85;;
47299;SDS011;33036;51.320;17.234;2022-10-26T06:27:38;26.25;;;15.52;;
47299;SDS011;33036;51.320;17.234;2022-10-26T06:31:40;31.40;;;15.97;;
47299;SDS011;33036;51.320;17.234;2022-10-26T06:40:04;35.45;;;17.90;;
47299;SDS011;33036;51.320;17.234;2022-10-26T06:44:07;27.42;;;16.83;;
47299;SDS011;33036;51.320;17.234;2022-10-26T06:48:21;25.83;;;15.25;;
47299;SDS011;33036;51.320;17.234;2022-10-26T06:56:32;21.50;;;14.43;;
47299;SDS011;33036;51.320;17.234;2022-10-26T07:00:33;26.67;;;17.05;;
47299;SDS011;33036;51.320;17.234;2022-10-26T07:04:34;34.80;;;19.10;;
47299;SDS011;33036;51.320;17.234;2022-10-26T07:08:35;31.90;;;20.58;;
47299;SDS011;33036;51.320;17.234;2022-10-26T07:12:36;35.67;;;21.77;;
47299;SDS011;33036;51.320;17.234;2022-10-26T07:16:38;45.50;;;23.10;;
47299;SDS011;33036;51.320;17.234;2022-10-26T07:20:39;45.67;;;22.88;;
47299;SDS011;33036;51.320;17.234;2022-10-26T07:24:41;41.75;;;23.83;;
47299;SDS011;33036;51.320;17.234;2022-10-26T07:28:42;45.33;;;25.35;;
47299;SDS011;33036;51.320;17.234;2022-10-26T07:32:43;39.97;;;22.70;;
47299;SDS011;33036;51.320;17.234;2022-10-26T07:36:44;44.17;;;23.15;;
47299;SDS011;33036;51.320;17.234;2022-10-26T07:40:46;40.90;;;22.25;;
47299;SDS011;33036;51.320;17.234;2022-10-26T07:44:48;46.40;;;22.08;;
47299;SDS011;33036;51.320;17.234;2022-10-26T07:48:49;46.72;;;24.05;;
47299;SDS011;33036;51.320;17.234;2022-10-26T07:52:50;41.30;;;22.10;;
47299;SDS011;33036;51.320;17.234;2022-10-26T07:56:51;48.08;;;23.80;;
47299;SDS011;33036;51.320;17.234;2022-10-26T08:00:52;38.88;;;22.42;;
47299;SDS011;33036;51.320;17.234;2022-10-26T08:04:54;52.08;;;27.27;;
47299;SDS011;33036;51.320;17.234;2022-10-26T08:08:54;54.60;;;27.27;;
47299;SDS011;33036;51.320;17.234;2022-10-26T08:12:55;42.83;;;21.85;;
47299;SDS011;33036;51.320;17.234;2022-10-26T08:16:56;38.72;;;20.40;;
47299;SDS011;33036;51.320;17.234;2022-10-26T08:21:02;43.40;;;23.25;;
47299;SDS011;33036;51.320;17.234;2022-10-26T08:25:04;28.70;;;17.48;;
47299;SDS011;33036;51.320;17.234;2022-10-26T08:29:05;33.38;;;17.33;;
47299;SDS011;33036;51.320;17.234;2022-10-26T08:33:06;30.88;;;16.77;;
47299;SDS011;33036;51.320;17.234;2022-10-26T08:37:08;25.27;;;14.65;;
47299;SDS011;33036;51.320;17.234;2022-10-26T08:41:08;16.67;;;9.50;;
47299;SDS011;33036;51.320;17.234;2022-10-26T08:45:31;16.30;;;8.82;;
47299;SDS011;33036;51.320;17.234;2022-10-26T08:49:40;15.02;;;9.15;;
47299;SDS011;33036;51.320;17.234;2022-10-26T08:53:56;20.48;;;9.82;;
47299;SDS011;33036;51.320;17.234;2022-10-26T08:58:00;17.40;;;9.13;;
47299;SDS011;33036;51.320;17.234;2022-10-26T09:02:01;20.05;;;10.57;;
47299;SDS011;33036;51.320;17.234;2022-10-26T09:14:23;27.25;;;12.65;;
47299;SDS011;33036;51.320;17.234;2022-10-26T09:18:42;26.10;;;12.60;;
47299;SDS011;33036;51.320;17.234;2022-10-26T09:22:56;19.73;;;9.48;;
47299;SDS011;33036;51.320;17.234;2022-10-26T09:31:34;15.27;;;8.98;;
47299;SDS011;33036;51.320;17.234;2022-10-26T09:35:48;14.55;;;7.68;;
47299;SDS011;33036;51.320;17.234;2022-10-26T09:49:08;14.43;;;7.45;;
47299;SDS011;33036;51.320;17.234;2022-10-26T09:53:10;18.77;;;7.40;;
47299;SDS011;33036;51.320;17.234;2022-10-26T09:57:14;17.10;;;6.28;;
47299;SDS011;33036;51.320;17.234;2022-10-26T10:01:22;10.77;;;6.10;;
47299;SDS011;33036;51.320;17.234;2022-10-26T10:05:33;14.18;;;6.80;;
47299;SDS011;33036;51.320;17.234;2022-10-26T10:09:35;11.98;;;4.20;;
47299;SDS011;33036;51.320;17.234;2022-10-26T10:13:39;14.68;;;4.75;;
47299;SDS011;33036;51.320;17.234;2022-10-26T10:17:45;12.55;;;5.22;;
47299;SDS011;33036;51.320;17.234;2022-10-26T10:21:47;14.60;;;6.07;;
47299;SDS011;33036;51.320;17.234;2022-10-26T10:25:49;13.00;;;6.35;;
47299;SDS011;33036;51.320;17.234;2022-10-26T10:34:19;12.40;;;7.55;;
47299;SDS011;33036;51.320;17.234;2022-10-26T10:38:21;15.77;;;6.47;;
47299;SDS011;33036;51.320;17.234;2022-10-26T10:42:24;13.00;;;7.03;;
47299;SDS011;33036;51.320;17.234;2022-10-26T10:46:26;13.50;;;6.43;;
47299;SDS011;33036;51.320;17.234;2022-10-26T10:50:28;10.50;;;4.93;;
47299;SDS011;33036;51.320;17.234;2022-10-26T10:54:31;15.35;;;5.57;;
47299;SDS011;33036;51.320;17.234;2022-10-26T10:58:37;13.02;;;5.78;;
47299;SDS011;33036;51.320;17.234;2022-10-26T11:02:51;10.93;;;5.63;;
47299;SDS011;33036;51.320;17.234;2022-10-26T11:07:02;12.00;;;5.70;;
47299;SDS011;33036;51.320;17.234;2022-10-26T11:11:06;17.05;;;5.93;;
47299;SDS011;33036;51.320;17.234;2022-10-26T11:15:16;11.38;;;6.20;;
47299;SDS011;33036;51.320;17.234;2022-10-26T11:23:42;9.95;;;4.38;;
47299;SDS011;33036;51.320;17.234;2022-10-26T11:28:09;13.32;;;4.63;;
47299;SDS011;33036;51.320;17.234;2022-10-26T11:32:25;12.95;;;4.32;;
47299;SDS011;33036;51.320;17.234;2022-10-26T11:36:43;9.00;;;4.10;;
47299;SDS011;33036;51.320;17.234;2022-10-26T11:40:50;13.70;;;4.30;;
47299;SDS011;33036;51.320;17.234;2022-10-26T11:53:50;13.10;;;3.83;;
47299;SDS011;33036;51.320;17.234;2022-10-26T11:57:52;13.65;;;3.60;;
47299;SDS011;33036;51.320;17.234;2022-10-26T12:01:54;11.05;;;2.60;;
47299;SDS011;33036;51.320;17.234;2022-10-26T12:05:58;8.05;;;2.45;;
47299;SDS011;33036;51.320;17.234;2022-10-26T12:09:59;8.27;;;2.28;;
47299;SDS011;33036;51.320;17.234;2022-10-26T12:18:25;9.65;;;2.60;;
47299;SDS011;33036;51.320;17.234;2022-10-26T12:22:32;4.97;;;1.90;;
47299;SDS011;33036;51.320;17.234;2022-10-26T12:26:36;10.15;;;2.17;;
47299;SDS011;33036;51.320;17.234;2022-10-26T12:30:38;8.50;;;2.70;;
47299;SDS011;33036;51.320;17.234;2022-10-26T12:42:44;4.80;;;2.00;;
47299;SDS011;33036;51.320;17.234;2022-10-26T12:46:45;6.90;;;2.10;;
47299;SDS011;33036;51.320;17.234;2022-10-26T12:50:45;6.43;;;2.70;;
47299;SDS011;33036;51.320;17.234;2022-10-26T12:54:56;9.32;;;2.20;;
47299;SDS011;33036;51.320;17.234;2022-10-26T12:59:10;11.55;;;2.47;;
47299;SDS011;33036;51.320;17.234;2022-10-26T13:07:46;7.55;;;2.20;;
47299;SDS011;33036;51.320;17.234;2022-10-26T13:11:56;5.80;;;2.15;;
47299;SDS011;33036;51.320;17.234;2022-10-26T13:15:58;6.53;;;2.10;;
47299;SDS011;33036;51.320;17.234;2022-10-26T13:20:02;5.97;;;2.17;;
47299;SDS011;33036;51.320;17.234;2022-10-26T13:24:04;9.85;;;2.30;;
47299;SDS011;33036;51.320;17.234;2022-10-26T13:28:31;7.55;;;2.70;;
47299;SDS011;33036;51.320;17.234;2022-10-26T13:32:39;6.43;;;2.00;;
47299;SDS011;33036;51.320;17.234;2022-10-26T13:36:47;10.23;;;2.47;;
47299;SDS011;33036;51.320;17.234;2022-10-26T13:40:55;6.45;;;2.38;;
47299;SDS011;33036;51.320;17.234;2022-10-26T13:45:04;11.70;;;3.25;;
47299;SDS011;33036;51.320;17.234;2022-10-26T13:49:15;5.38;;;2.53;;
47299;SDS011;33036;51.320;17.234;2022-10-26T13:53:40;7.40;;;3.03;;
47299;SDS011;33036;51.320;17.234;2022-10-26T13:57:48;11.45;;;3.00;;
47299;SDS011;33036;51.320;17.234;2022-10-26T14:02:06;10.27;;;2.08;;
47299;SDS011;33036;51.320;17.234;2022-10-26T14:10:28;7.13;;;2.65;;
47299;SDS011;33036;51.320;17.234;2022-10-26T14:14:38;6.75;;;2.20;;
47299;SDS011;33036;51.320;17.234;2022-10-26T14:18:40;8.00;;;2.20;;
47299;SDS011;33036;51.320;17.234;2022-10-26T14:22:40;10.50;;;2.63;;
47299;SDS011;33036;51.320;17.234;2022-10-26T14:26:43;7.75;;;2.35;;
47299;SDS011;33036;51.320;17.234;2022-10-26T14:30:44;7.15;;;1.98;;
47299;SDS011;33036;51.320;17.234;2022-10-26T14:34:45;5.32;;;1.80;;
47299;SDS011;33036;51.320;17.234;2022-10-26T14:38:47;9.73;;;2.10;;
47299;SDS011;33036;51.320;17.234;2022-10-26T14:42:51;9.98;;;2.22;;
47299;SDS011;33036;51.320;17.234;2022-10-26T14:46:56;6.22;;;2.13;;
47299;SDS011;33036;51.320;17.234;2022-10-26T14:51:01;8.85;;;2.20;;
47299;SDS011;33036;51.320;17.234;2022-10-26T14:55:15;7.85;;;2.05;;
47299;SDS011;33036;51.320;17.234;2022-10-26T15:03:23;9.07;;;2.72;;
47299;SDS011;33036;51.320;17.234;2022-10-26T15:07:33;9.73;;;2.05;;
47299;SDS011;33036;51.320;17.234;2022-10-26T15:11:35;8.10;;;2.40;;
47299;SDS011;33036;51.320;17.234;2022-10-26T15:15:42;7.65;;;2.20;;
47299;SDS011;33036;51.320;17.234;2022-10-26T15:19:43;10.57;;;2.72;;
47299;SDS011;33036;51.320;17.234;2022-10-26T15:23:44;7.63;;;3.63;;
47299;SDS011;33036;51.320;17.234;2022-10-26T15:27:46;24.40;;;10.98;;
47299;SDS011;33036;51.320;17.234;2022-10-26T15:31:47;22.73;;;10.10;;
47299;SDS011;33036;51.320;17.234;2022-10-26T15:40:16;11.65;;;3.60;;
47299;SDS011;33036;51.320;17.234;2022-10-26T15:44:18;19.40;;;3.60;;
47299;SDS011;33036;51.320;17.234;2022-10-26T15:48:27;15.77;;;5.30;;
47299;SDS011;33036;51.320;17.234;2022-10-26T15:52:31;7.30;;;2.60;;
47299;SDS011;33036;51.320;17.234;2022-10-26T15:56:32;8.25;;;2.63;;
47299;SDS011;33036;51.320;17.234;2022-10-26T16:00:33;16.95;;;2.50;;
47299;SDS011;33036;51.320;17.234;2022-10-26T16:04:33;8.60;;;3.10;;
47299;SDS011;33036;51.320;17.234;2022-10-26T16:08:35;9.60;;;4.28;;
47299;SDS011;33036;51.320;17.234;2022-10-26T16:12:39;14.73;;;4.55;;
47299;SDS011;33036;51.320;17.234;2022-10-26T16:16:40;69.78;;;20.90;;
47299;SDS011;33036;51.320;17.234;2022-10-26T16:20:43;58.35;;;21.38;;
47299;SDS011;33036;51.320;17.234;2022-10-26T16:24:45;71.32;;;31.10;;
47299;SDS011;33036;51.320;17.234;2022-10-26T16:28:46;60.38;;;27.88;;
47299;SDS011;33036;51.320;17.234;2022-10-26T16:32:48;39.47;;;17.92;;
47299;SDS011;33036;51.320;17.234;2022-10-26T16:36:49;41.47;;;18.48;;
47299;SDS011;33036;51.320;17.234;2022-10-26T16:40:59;24.38;;;10.55;;
47299;SDS011;33036;51.320;17.234;2022-10-26T16:45:05;15.23;;;6.38;;
47299;SDS011;33036;51.320;17.234;2022-10-26T16:49:06;22.60;;;7.13;;
47299;SDS011;33036;51.320;17.234;2022-10-26T16:53:07;34.42;;;10.25;;
47299;SDS011;33036;51.320;17.234;2022-10-26T16:57:08;51.55;;;18.48;;
47299;SDS011;33036;51.320;17.234;2022-10-26T17:01:10;44.10;;;13.23;;
47299;SDS011;33036;51.320;17.234;2022-10-26T17:05:12;23.80;;;7.97;;
47299;SDS011;33036;51.320;17.234;2022-10-26T17:09:13;29.38;;;11.32;;
47299;SDS011;33036;51.320;17.234;2022-10-26T17:13:15;31.52;;;11.07;;
47299;SDS011;33036;51.320;17.234;2022-10-26T17:17:16;13.07;;;5.72;;
47299;SDS011;33036;51.320;17.234;2022-10-26T17:21:18;11.55;;;6.13;;
47299;SDS011;33036;51.320;17.234;2022-10-26T17:25:27;10.85;;;6.03;;
47299;SDS011;33036;51.320;17.234;2022-10-26T17:29:27;29.17;;;8.40;;
47299;SDS011;33036;51.320;17.234;2022-10-26T17:33:33;21.92;;;10.55;;
47299;SDS011;33036;51.320;17.234;2022-10-26T17:37:35;40.95;;;15.48;;
47299;SDS011;33036;51.320;17.234;2022-10-26T17:41:37;44.47;;;24.35;;
47299;SDS011;33036;51.320;17.234;2022-10-26T17:45:38;56.42;;;29.33;;
47299;SDS011;33036;51.320;17.234;2022-10-26T17:49:39;37.40;;;18.73;;
47299;SDS011;33036;51.320;17.234;2022-10-26T17:53:41;34.63;;;18.05;;
47299;SDS011;33036;51.320;17.234;2022-10-26T17:57:43;35.90;;;17.58;;
47299;SDS011;33036;51.320;17.234;2022-10-26T18:01:47;48.13;;;21.95;;
47299;SDS011;33036;51.320;17.234;2022-10-26T18:05:51;64.20;;;32.45;;
47299;SDS011;33036;51.320;17.234;2022-10-26T18:09:52;63.58;;;32.20;;
47299;SDS011;33036;51.320;17.234;2022-10-26T18:13:53;50.67;;;28.10;;
47299;SDS011;33036;51.320;17.234;2022-10-26T18:17:55;44.08;;;23.25;;
47299;SDS011;33036;51.320;17.234;2022-10-26T18:21:58;45.55;;;25.05;;
47299;SDS011;33036;51.320;17.234;2022-10-26T18:30:11;47.17;;;26.45;;
47299;SDS011;33036;51.320;17.234;2022-10-26T18:34:15;51.45;;;27.90;;
47299;SDS011;33036;51.320;17.234;2022-10-26T18:38:19;50.45;;;28.83;;
47299;SDS011;33036;51.320;17.234;2022-10-26T18:42:22;61.88;;;31.48;;
47299;SDS011;33036;51.320;17.234;2022-10-26T18:46:28;97.47;;;44.15;;
47299;SDS011;33036;51.320;17.234;2022-10-26T18:50:33;76.57;;;37.80;;
47299;SDS011;33036;51.320;17.234;2022-10-26T18:54:40;64.43;;;34.05;;
47299;SDS011;33036;51.320;17.234;2022-10-26T18:58:43;46.05;;;26.45;;
47299;SDS011;33036;51.320;17.234;2022-10-26T19:02:49;61.22;;;34.35;;
47299;SDS011;33036;51.320;17.234;2022-10-26T19:06:58;80.53;;;40.20;;
47299;SDS011;33036;51.320;17.234;2022-10-26T19:11:06;100.07;;;43.60;;
47299;SDS011;33036;51.320;17.234;2022-10-26T19:15:11;73.80;;;34.33;;
47299;SDS011;33036;51.320;17.234;2022-10-26T19:19:18;64.57;;;29.95;;
47299;SDS011;33036;51.320;17.234;2022-10-26T19:23:23;52.38;;;28.83;;
47299;SDS011;33036;51.320;17.234;2022-10-26T19:27:27;52.05;;;26.88;;
47299;SDS011;33036;51.320;17.234;2022-10-26T19:31:30;53.50;;;26.92;;
47299;SDS011;33036;51.320;17.234;2022-10-26T19:35:40;53.00;;;26.00;;
47299;SDS011;33036;51.320;17.234;2022-10-26T19:39:43;53.50;;;26.05;;
47299;SDS011;33036;51.320;17.234;2022-10-26T19:43:47;52.22;;;28.13;;
47299;SDS011;33036;51.320;17.234;2022-10-26T19:47:53;45.72;;;25.70;;
47299;SDS011;33036;51.320;17.234;2022-10-26T19:52:00;57.40;;;26.02;;
47299;SDS011;33036;51.320;17.234;2022-10-26T19:56:05;48.45;;;24.63;;
47299;SDS011;33036;51.320;17.234;2022-10-26T20:00:14;43.75;;;25.13;;
47299;SDS011;33036;51.320;17.234;2022-10-26T20:04:18;59.33;;;29.77;;
47299;SDS011;33036;51.320;17.234;2022-10-26T20:08:20;58.95;;;26.77;;
47299;SDS011;33036;51.320;17.234;2022-10-26T20:12:24;54.13;;;26.45;;
47299;SDS011;33036;51.320;17.234;2022-10-26T20:16:25;53.13;;;25.27;;
47299;SDS011;33036;51.320;17.234;2022-10-26T20:20:26;52.70;;;25.83;;
47299;SDS011;33036;51.320;17.234;2022-10-26T20:24:31;51.60;;;25.15;;
47299;SDS011;33036;51.320;17.234;2022-10-26T20:28:31;52.13;;;25.83;;
47299;SDS011;33036;51.320;17.234;2022-10-26T20:32:33;42.97;;;22.17;;
47299;SDS011;33036;51.320;17.234;2022-10-26T20:36:35;65.53;;;29.17;;
47299;SDS011;33036;51.320;17.234;2022-10-26T20:40:36;89.18;;;41.70;;
47299;SDS011;33036;51.320;17.234;2022-10-26T20:44:39;77.63;;;37.58;;
47299;SDS011;33036;51.320;17.234;2022-10-26T20:48:43;63.85;;;31.27;;
47299;SDS011;33036;51.320;17.234;2022-10-26T20:57:02;75.43;;;29.30;;
47299;SDS011;33036;51.320;17.234;2022-10-26T21:01:06;97.35;;;33.40;;
47299;SDS011;33036;51.320;17.234;2022-10-26T21:05:10;101.50;;;35.53;;
47299;SDS011;33036;51.320;17.234;2022-10-26T21:09:11;110.25;;;37.63;;
47299;SDS011;33036;51.320;17.234;2022-10-26T21:13:12;96.18;;;33.97;;
47299;SDS011;33036;51.320;17.234;2022-10-26T21:17:13;108.85;;;40.28;;
47299;SDS011;33036;51.320;17.234;2022-10-26T21:21:14;96.20;;;34.92;;
47299;SDS011;33036;51.320;17.234;2022-10-26T21:25:15;76.82;;;31.58;;
47299;SDS011;33036;51.320;17.234;2022-10-26T21:29:16;72.47;;;30.02;;
47299;SDS011;33036;51.320;17.234;2022-10-26T21:33:17;61.63;;;27.50;;
47299;SDS011;33036;51.320;17.234;2022-10-26T21:37:18;68.22;;;26.63;;
47299;SDS011;33036;51.320;17.234;2022-10-26T21:41:19;57.83;;;26.70;;
47299;SDS011;33036;51.320;17.234;2022-10-26T21:45:20;62.42;;;27.23;;
47299;SDS011;33036;51.320;17.234;2022-10-26T21:49:21;67.35;;;26.45;;
47299;SDS011;33036;51.320;17.234;2022-10-26T21:53:22;52.78;;;24.33;;
47299;SDS011;33036;51.320;17.234;2022-10-26T21:57:25;51.08;;;22.85;;
47299;SDS011;33036;51.320;17.234;2022-10-26T22:01:26;45.05;;;20.67;;
47299;SDS011;33036;51.320;17.234;2022-10-26T22:05:27;48.30;;;21.00;;
47299;SDS011;33036;51.320;17.234;2022-10-26T22:09:33;43.80;;;20.92;;
47299;SDS011;33036;51.320;17.234;2022-10-26T22:13:33;49.53;;;23.92;;
47299;SDS011;33036;51.320;17.234;2022-10-26T22:17:35;50.95;;;23.23;;
47299;SDS011;33036;51.320;17.234;2022-10-26T22:21:38;51.30;;;23.60;;
47299;SDS011;33036;51.320;17.234;2022-10-26T22:25:39;45.70;;;22.50;;
47299;SDS011;33036;51.320;17.234;2022-10-26T22:29:40;46.78;;;21.92;;
47299;SDS011;33036;51.320;17.234;2022-10-26T22:33:41;46.80;;;24.75;;
47299;SDS011;33036;51.320;17.234;2022-10-26T22:37:42;50.75;;;25.00;;
47299;SDS011;33036;51.320;17.234;2022-10-26T22:41:44;50.03;;;25.98;;
47299;SDS011;33036;51.320;17.234;2022-10-26T22:45:44;58.75;;;26.98;;
47299;SDS011;33036;51.320;17.234;2022-10-26T22:49:45;54.30;;;25.90;;
47299;SDS011;33036;51.320;17.234;2022-10-26T22:53:50;52.28;;;25.48;;
47299;SDS011;33036;51.320;17.234;2022-10-26T22:57:54;48.67;;;26.83;;
47299;SDS011;33036;51.320;17.234;2022-10-26T23:01:55;52.92;;;26.92;;
47299;SDS011;33036;51.320;17.234;2022-10-26T23:05:56;55.38;;;27.17;;
47299;SDS011;33036;51.320;17.234;2022-10-26T23:09:57;56.03;;;27.27;;
47299;SDS011;33036;51.320;17.234;2022-10-26T23:13:59;60.88;;;26.70;;
47299;SDS011;33036;51.320;17.234;2022-10-26T23:18:00;55.70;;;29.55;;
47299;SDS011;33036;51.320;17.234;2022-10-26T23:22:01;59.85;;;30.63;;
47299;SDS011;33036;51.320;17.234;2022-10-26T23:26:03;54.45;;;27.88;;
47299;SDS011;33036;51.320;17.234;2022-10-26T23:30:06;51.08;;;26.38;;
47299;SDS011;33036;51.320;17.234;2022-10-26T23:34:07;50.65;;;25.00;;
47299;SDS011;33036;51.320;17.234;2022-10-26T23:38:09;48.05;;;24.42;;
47299;SDS011;33036;51.320;17.234;2022-10-26T23:42:09;43.95;;;22.88;;
47299;SDS011;33036;51.320;17.234;2022-10-26T23:46:10;46.58;;;23.85;;
47299;SDS011;33036;51.320;17.234;2022-10-26T23:50:11;40.75;;;22.38;;
47299;SDS011;33036;51.320;17.234;2022-10-26T23:54:12;42.05;;;22.95;;
47299;SDS011;33036;51.320;17.234;2022-10-26T23:58:14;38.00;;;21.63;;
